Latest Coastal Weather Observations for Charles Point

IDD60701

Issued at 2:51 am CST Saturday 20 January 2018 (issued every 10 minutes, with the page automatically refreshed every 10 minutes)

About coastal observations | Map of coastal stations | Coastal observations for NT | Marine services | Other Formats
Station Details ID: 014031 Name: CHARLES POINT Lat: -12.39 Lon: 130.63 Height: 14.0 m
Data from the previous 72 hours. | See also: Recent months for locations in Northern Territory
Date/Time
CST
Temp
°C
Wind Pressure Rain since
9am
mm
Weather Cloud Vis
km
Sea
Height
m
Swell
Dir  Spd
kts
Gust
kts
hPa Trend Height
m
Period
s
Dir
20/02:30am 24.5 SE 3 5 1003.9 - 66.4 - - - - - - -
20/02:00am 24.8 SE 2 4 1004.3 - 66.4 - - - - - - -
20/01:30am 25.0 SE 3 6 1004.8 - 66.4 - - - - - - -
20/01:00am 25.2 SE 4 7 1005.4 - 66.4 - - - - - - -
20/12:30am 25.4 CALM 0 0 1005.7 - 66.4 - - - - - - -
20/12:00am 25.5 CALM 0 0 1005.9 - 66.4 - - - - - - -
 
Date/Time
CST
Temp
°C
Wind Pressure Rain since
9am
mm
Weather Cloud Vis
km
Sea
Height
m
Swell
Dir  Spd
kts
Gust
kts
hPa Trend Height
m
Period
s
Dir
19/11:30pm 25.6 CALM 0 0 1006.1 - 66.4 - - - - - - -
19/11:00pm 26.0 N 3 5 1006.5 - 66.4 - - - - - - -
19/10:30pm 25.3 N 3 5 1006.3 - 66.4 - - - - - - -
19/10:00pm 25.0 SW 1 2 1006.1 - 66.4 - - - - - - -
19/09:30pm 24.7 SSW 2 3 1005.8 - 66.2 - - - - - - -
19/09:00pm 24.5 SW 2 3 1005.1 - 66.0 Rain - - - - - -
19/08:30pm 24.4 S 3 4 1004.5 - 65.6 - - - - - - -
19/08:00pm 24.4 WSW 1 3 1003.9 - 65.6 - - - - - - -
19/07:30pm 24.3 CALM 0 2 1003.7 - 65.6 - - - - - - -
19/07:00pm 24.3 SE 1 3 1004.3 - 64.4 - - - - - - -
19/06:30pm 24.3 ESE 2 3 1004.6 - 60.6 - - - - - - -
19/06:00pm 24.1 SSW 4 7 1004.6 - 52.2 Showers - - - - - -
19/05:30pm 25.4 ESE 4 7 1004.2 - 6.4 - - - - - - -
19/05:00pm 27.1 S 6 9 1003.4 - 1.0 - - - - - - -
19/04:30pm 29.8 WNW 7 10 1003.5 - 1.0 - - - - - - -
19/04:00pm 30.5 WNW 8 11 1003.3 - 1.0 - - - - - - -
19/03:30pm 30.6 NW 6 11 1003.5 - 1.0 - - - - - - -
19/03:00pm 30.6 NW 6 9 1003.8 - 1.0 - - - - - - -
19/02:30pm 30.6 NNW 5 8 1003.9 - 1.0 - - - - - - -
19/02:00pm 29.9 ENE 3 4 1004.3 - 1.0 - - - - - - -
19/01:30pm 28.8 ESE 4 8 1004.9 - 1.0 - - - - - - -
19/01:00pm 29.1 E 1 3 1005.3 - 1.0 - - - - - - -
19/12:30pm 28.4 S 1 3 1005.7 - 0.8 - - - - - - -
19/12:00pm 28.4 CALM 0 0 1005.9 - 0.8 - - - - - - -
19/11:30am 27.9 CALM 0 0 1006.2 - 0.8 - - - - - - -
19/11:00am 27.7 S 1 3 1006.4 - 0.8 - - - - - - -
19/10:30am 27.1 SE 3 4 1006.4 - 0.8 - - - - - - -
19/10:00am 27.1 SSE 2 4 1006.4 - 0.8 - - - - - - -
19/09:30am 26.5 SSE 4 5 1006.5 - 0.8 - - - - - - -
19/09:00am 26.4 ESE 3 6 1006.6 - 4.8 Rain - - - - - -
19/08:30am 25.9 SE 4 7 1006.7 - 3.2 - - - - - - -
19/08:00am 25.7 SSE 4 6 1006.6 - 3.2 - - - - - - -
19/07:30am 25.5 SSE 3 5 1006.4 - 3.2 - - - - - - -
19/07:00am 25.2 CALM 0 0 1005.8 - 3.2 - - - - - - -
19/06:30am 25.0 CALM 0 0 1005.2 - 3.2 - - - - - - -
19/06:00am 24.7 CALM 0 0 1004.8 - 3.2 - - - - - - -
19/05:30am 24.8 S 1 2 1004.6 - 3.2 - - - - - - -
19/05:00am 24.8 S 2 3 1004.5 - 3.2 - - - - - - -
19/04:30am 24.9 SSE 3 4 1004.7 - 3.2 - - - - - - -
19/04:00am 25.0 S 4 6 1004.9 - 3.2 - - - - - - -
19/03:30am 25.1 SSE 3 5 1005.0 - 3.2 - - - - - - -
19/03:00am 25.1 SSE 3 4 1005.3 - 3.2 Rain - - - - - -
19/02:30am 25.4 SSE 2 3 1005.5 - 3.0 - - - - - - -
19/02:00am 25.4 SE 2 3 1005.9 - 3.0 - - - - - - -
19/01:30am 25.5 SE 3 5 1006.1 - 3.0 - - - - - - -
19/01:00am 25.4 SSE 3 4 1006.3 - 2.8 - - - - - - -
19/12:30am 25.5 S 3 4 1006.7 - 2.6 - - - - - - -
19/12:00am 25.6 SSW 2 3 1007.0 - 2.6 Recent precip. - - - - - -
 
Date/Time
CST
Temp
°C
Wind Pressure Rain since
9am
mm
Weather Cloud Vis
km
Sea
Height
m
Swell
Dir  Spd
kts
Gust
kts
hPa Trend Height
m
Period
s
Dir
18/11:30pm 25.7 WSW 2 2 1007.2 - 2.4 - - - - - - -
18/11:00pm 25.7 WSW 2 2 1007.3 - 2.4 - - - - - - -
18/10:30pm 25.7 WSW 1 2 1007.3 - 2.4 - - - - - - -
18/10:00pm 25.9 WSW 2 2 1007.1 - 2.4 - - - - - - -
18/09:30pm 25.9 W 1 2 1007.0 - 2.4 - - - - - - -
18/09:00pm 26.0 W 1 2 1006.8 - 2.2 Recent precip. - - - - - -
18/08:30pm 26.2 NW 2 5 1006.6 - 2.0 - - - - - - -
18/08:00pm 25.8 WNW 3 6 1006.1 - 1.8 - - - - - - -
18/07:30pm 25.9 SSW 2 6 1005.8 - 0.8 - - - - - - -
18/07:00pm 27.2 WSW 2 10 1005.5 - 0.0 - - - - - - -
18/06:30pm 27.4 SW 2 5 1005.0 - 0.0 - - - - - - -
18/06:00pm 28.6 N 2 4 1004.8 - 0.0 - - - - - - -
18/05:30pm 28.5 N 5 7 1004.4 - 0.0 - - - - - - -
18/05:00pm 28.1 NNW 4 7 1004.0 - 0.0 - - - - - - -
18/04:30pm 28.1 N 10 15 1003.9 - 0.0 - - - - - - -
18/04:00pm 29.4 NNW 4 7 1003.9 - 0.0 - - - - - - -
18/03:30pm 29.7 NW 2 4 1003.9 - 0.0 - - - - - - -
18/03:00pm 29.5 NW 3 5 1004.0 - 0.0 - - - - - - -
18/02:30pm 30.4 W 3 4 1004.4 - 0.0 - - - - - - -
18/02:00pm 29.5 SSW 2 3 1004.9 - 0.0 - - - - - - -
18/01:30pm 28.1 WSW 3 7 1005.5 - 0.0 - - - - - - -
18/01:00pm 29.9 NNE 2 4 1005.6 - 0.0 - - - - - - -
18/12:30pm 30.0 ENE 2 3 1005.5 - 0.0 - - - - - - -
18/12:00pm 29.9 ENE 3 5 1005.6 - 0.0 - - - - - - -
18/11:30am 29.1 NE 3 5 1005.6 - 0.0 - - - - - - -
18/11:00am 28.9 ENE 3 6 1005.6 - 0.0 - - - - - - -
18/10:30am 28.5 ENE 3 5 1006.1 - 0.0 - - - - - - -
18/10:00am 28.7 E 4 6 1006.2 - 0.0 - - - - - - -
18/09:30am 28.5 E 5 8 1006.4 - 0.0 - - - - - - -
18/09:00am 27.3 E 5 8 1006.7 - 0.0 - - - - - - -
18/08:30am 27.1 ESE 5 8 1006.7 - 0.0 - - - - - - -
18/08:00am 26.8 ESE 4 6 1006.6 - 0.0 - - - - - - -
18/07:30am 26.3 ESE 3 6 1006.2 - 0.0 - - - - - - -
18/07:00am 26.2 SE 3 5 1005.8 - 0.0 - - - - - - -
18/06:30am 26.5 SE 3 5 1005.4 - 0.0 - - - - - - -
18/06:00am 26.6 SE 3 5 1005.1 - 0.0 - - - - - - -
18/05:30am 26.4 SE 3 5 1005.2 - 0.0 - - - - - - -
18/05:00am 26.6 SE 3 6 1004.8 - 0.0 - - - - - - -
18/04:30am 26.6 SE 4 6 1004.5 - 0.0 - - - - - - -
18/04:00am 26.5 SE 4 6 1004.5 - 0.0 - - - - - - -
18/03:30am 26.5 SSE 3 5 1004.5 - 0.0 - - - - - - -
18/03:00am 26.7 SSE 4 5 1004.8 - 0.0 - - - - - - -
18/02:30am 26.8 SSE 3 5 1005.3 - 0.0 - - - - - - -
18/02:00am 26.8 S 3 5 1005.2 - 0.0 - - - - - - -
18/01:30am 27.0 S 2 3 1005.4 - 0.0 - - - - - - -
18/01:00am 27.0 S 3 5 1006.2 - 0.0 - - - - - - -
18/12:30am 26.8 SSW 2 3 1006.5 - 0.0 - - - - - - -
18/12:00am 27.1 SSW 1 2 1006.6 - 0.0 - - - - - - -
 
Date/Time
CST
Temp
°C
Wind Pressure Rain since
9am
mm
Weather Cloud Vis
km
Sea
Height
m
Swell
Dir  Spd
kts
Gust
kts
hPa Trend Height
m
Period
s
Dir
17/11:30pm 27.0 SSW 2 4 1006.5 - 0.0 - - - - - - -
17/11:00pm 27.0 WSW 2 3 1006.3 - 0.0 - - - - - - -
17/10:30pm 27.1 WSW 2 3 1006.3 - 0.0 - - - - - - -
17/10:00pm 26.9 SW 2 2 1005.9 - 0.0 - - - - - - -
17/09:30pm 27.0 SW 2 3 1005.7 - 0.0 - - - - - - -
17/09:00pm 26.9 WSW 1 2 1005.6 - 0.0 - - - - - - -
17/08:30pm 27.1 WSW 2 3 1005.0 - 0.0 - - - - - - -
17/08:00pm 27.5 WSW 1 2 1004.8 - 0.0 - - - - - - -
17/07:30pm 27.8 WSW 2 3 1004.1 - 0.0 - - - - - - -
17/07:00pm 28.6 W 2 5 1003.7 - 0.0 - - - - - - -
17/06:30pm 29.1 W 2 5 1003.4 - 0.0 - - - - - - -
17/06:00pm 29.4 WNW 7 10 1003.2 - 0.0 - - - - - - -
17/05:30pm 30.0 W 4 7 1003.4 - 0.0 - - - - - - -
17/05:00pm 30.1 WNW 5 8 1003.1 - 0.0 - - - - - - -
17/04:30pm 30.2 WNW 5 8 1002.7 - 0.0 - - - - - - -
17/04:00pm 29.8 W 4 7 1003.2 - 0.0 - - - - - - -
17/03:30pm 29.9 W 4 6 1004.0 - 0.0 - - - - - - -
17/03:00pm 29.9 NNW 2 4 1004.0 - 0.0 - - - - - - -
17/02:30pm 29.8 NNW 1 3 1004.2 - 0.0 - - - - - - -
17/02:00pm 29.9 WSW 1 3 1004.7 - 0.0 - - - - - - -
17/01:30pm 29.4 SE 2 3 1005.1 - 0.0 - - - - - - -
17/01:00pm 29.6 CALM 0 2 1004.8 - 0.0 - - - - - - -
17/12:30pm 28.9 SE 1 3 1004.4 - 0.0 - - - - - - -
17/12:00pm 28.9 ESE 2 4 1004.4 - 0.0 - - - - - - -
17/11:30am 28.6 ESE 1 3 1004.4 - 0.0 - - - - - - -
17/11:00am 28.8 CALM 0 0 1004.5 - 0.0 - - - - - - -
17/10:30am 29.0 - 1 2 1004.4 - 0.0 - - - - - - -
17/10:00am 29.6 ESE 2 5 1004.3 - 0.0 - - - - - - -
17/09:30am 28.7 N 1 2 1004.3 - 0.0 - - - - - - -
17/09:00am 28.1 E 3 5 1004.8 - 3.2 - - - - - - -
17/08:30am 27.6 ESE 7 13 1005.3 - 3.2 - - - - - - -
17/08:00am 26.8 ESE 8 12 1006.0 - 3.2 - - - - - - -
17/07:30am 26.1 ESE 10 17 1006.1 - 3.2 - - - - - - -
17/07:00am 25.7 ESE 6 12 1006.2 - 3.2 - - - - - - -
17/06:30am 24.7 SE 5 8 1005.5 - 3.2 - - - - - - -
17/06:00am 24.6 S 5 6 1004.4 - 3.2 - - - - - - -
17/05:30am 24.6 S 5 6 1004.1 - 3.2 - - - - - - -
17/05:00am 24.7 SSE 3 5 1003.7 - 3.2 - - - - - - -
17/04:30am 24.8 SSE 2 4 1003.6 - 3.2 - - - - - - -
17/04:00am 24.8 SSE 3 4 1003.8 - 3.2 - - - - - - -
17/03:30am 24.7 S 2 3 1003.9 - 3.2 - - - - - - -
17/03:00am 24.7 SSW 3 3 1004.0 - 3.2 - - - - - - -

Other Formats:

Comma delimited format used in spreadsheet applications
http://www.bom.gov.au/fwo/IDD60701/IDD60701.99510.axf

JavaScript Object Notation format (JSON) in row-major order
http://www.bom.gov.au/fwo/IDD60701/IDD60701.99510.json